Aérodrome :
LOGIN :

S'inscrire | Disclaimer

   EN    FR    IT 

 










Légende :    VFR   VFR Marginal   IFR   IFR Intensif   IFR Très Intensif
Visi : 
Plafond : 
>= 8 km
>= 3000ft
5 à 8 km
1000 à 3000 ft
1500m à 5 km
500 à 1000 ft
800 à 1500m
200 à 500 ft
< 800m
< 200 ft
Symboles :   Orages  Brouillard  Fortes neiges  Fortes précipitations  Vent > 20 kt
SIGMETs :   Divers  Orages  Givrage  Turbulence  Onde Orograph.  Cendres Volcan.






- Altitude de l'aérodrome : 348 ft
- Code IATA : STN


EGSS - London Stansted

DERNIER METAR :
  • 231420Z AUTO 31016G27KT 280V340 9999 FEW023 SCT036 BKN049 09/04 Q1016

METARs EXPIRÉS :
  • 231350Z AUTO 31016G26KT 9999 BKN032 BKN043 10/05 Q1015
  • 231320Z AUTO 29015KT 9999 BKN036 BKN044 12/06 Q1014
  • 231250Z AUTO 29014G24KT 9999 SCT029 BKN034 OVC048 12/07 Q1013
  • 231220Z AUTO 29014G26KT 260V320 9999 SCT019 BKN028 BKN034 12/08 Q1012
  • 231150Z AUTO 29014KT 9000 -RA SCT012/// BKN018/// BKN025/// //////TCU 12/10 Q1011 RERA REDZ

TAF TAF EGSS
Valide du 23 à 12h jusqu'au 24 à 18h UTC


231105Z 2312/2418 24018G30KT 9999 SCT030
BECMG 2312/2316 28012KT
PROB30
TEMPO 2312/2316 8000 SHRA BKN014
BECMG 2318/2321 VRB03KT
BECMG 2401/2404 7000 -RA BKN012
TEMPO 2402/2408 3000 RADZ BR BKN005
BECMG 2403/2406 13012KT
BECMG 2406/2409 24018G32KT 9999 NSW
TEMPO 2409/2416 4000 RA BKN009
BECMG 2415/2418 FEW030
ATIS : +44 1279 669 325



MET'MAP, la Météo Aéronautique d'un coup d'oeil ! - Copyright ORBIFLY Décembre 2007 - Disclaimer

ORBIFLY MET'MAP TEAM :

Programmation & Développement : Alexandra Zaïnal
Sur une idée originale de : Baudouin d'Aumeries
Assistance à la programmation : Marc-Olivier Méhu
Soutien technique & logistique : Manuel Goepfert

Contact : metmap@orbifly.com




SOURCES & CREDITS :

   NOAA